createdAt,value
2024-01-07T00:01:58.762Z,2.00
2024-01-07T00:04:26.929Z,1.97
2024-01-07T00:06:55.053Z,2.00
2024-01-07T00:09:23.163Z,2.10
2024-01-07T00:11:52.911Z,1.80
2024-01-07T00:14:20.920Z,1.70
2024-01-07T00:16:48.917Z,2.43
2024-01-07T00:19:17.157Z,1.63
2024-01-07T00:21:45.244Z,1.80
2024-01-07T00:24:13.341Z,1.50
2024-01-07T00:26:41.803Z,2.00
2024-01-07T00:29:09.830Z,1.47
2024-01-07T00:31:37.966Z,1.40
2024-01-07T00:34:08.059Z,1.87
2024-01-07T00:36:36.154Z,1.13
2024-01-07T00:39:04.301Z,1.50
2024-01-07T00:41:35.263Z,1.70
2024-01-07T00:44:03.335Z,1.50
2024-01-07T00:46:35.422Z,2.10
2024-01-07T00:49:03.572Z,1.33
2024-01-07T00:51:31.634Z,1.30
2024-01-07T00:53:59.709Z,1.57
2024-01-07T00:56:30.776Z,1.40
2024-01-07T00:58:58.776Z,1.90
2024-01-07T01:01:27.005Z,1.70
2024-01-07T01:03:55.428Z,1.70
2024-01-07T01:06:23.672Z,1.83
2024-01-07T01:08:51.937Z,1.83
2024-01-07T01:11:20.010Z,2.13
2024-01-07T01:13:48.406Z,1.97
2024-01-07T01:16:16.359Z,1.63
2024-01-07T01:18:44.469Z,2.27
2024-01-07T01:21:12.606Z,2.70
2024-01-07T01:23:40.630Z,2.10
2024-01-07T01:26:08.718Z,2.20
2024-01-07T01:28:36.712Z,2.10
2024-01-07T01:31:04.977Z,2.73
2024-01-07T01:33:33.231Z,2.10
2024-01-07T01:36:01.304Z,2.33
2024-01-07T01:38:29.416Z,4.33
2024-01-07T01:40:57.577Z,2.90
2024-01-07T01:43:29.182Z,2.90
2024-01-07T01:45:58.076Z,2.20
2024-01-07T01:48:26.557Z,2.30
2024-01-07T01:50:56.277Z,2.83
2024-01-07T01:53:24.435Z,2.67
2024-01-07T01:55:52.452Z,2.90
2024-01-07T01:58:20.563Z,2.47
2024-01-07T02:00:48.662Z,3.07
2024-01-07T02:03:16.907Z,2.40
2024-01-07T02:05:45.146Z,2.83
2024-01-07T02:08:13.239Z,2.43
2024-01-07T02:10:43.211Z,3.40
2024-01-07T02:13:11.588Z,2.90
2024-01-07T02:15:39.743Z,3.03
2024-01-07T02:18:07.891Z,2.90
2024-01-07T02:20:35.910Z,3.03
2024-01-07T02:23:05.245Z,3.43
2024-01-07T02:25:39.662Z,3.77
2024-01-07T02:28:08.164Z,4.77
2024-01-07T02:30:36.467Z,3.97
2024-01-07T02:33:06.341Z,3.20
2024-01-07T02:35:34.531Z,4.33
2024-01-07T02:38:02.646Z,2.50
2024-01-07T02:40:30.709Z,3.40
2024-01-07T02:42:59.227Z,3.27
2024-01-07T02:45:27.289Z,2.90
2024-01-07T02:47:55.432Z,4.07
2024-01-07T02:50:23.589Z,3.43
2024-01-07T02:52:51.663Z,3.37
2024-01-07T02:55:19.837Z,3.23
2024-01-07T02:57:47.877Z,3.60
2024-01-07T03:00:16.289Z,4.07
2024-01-07T03:02:44.371Z,3.17
2024-01-07T03:05:12.535Z,3.60
2024-01-07T03:07:41.909Z,5.57
2024-01-07T03:10:10.348Z,3.90
2024-01-07T03:12:38.546Z,3.23
2024-01-07T03:15:08.400Z,4.50
2024-01-07T03:17:36.538Z,3.40
2024-01-07T03:20:04.661Z,3.30
2024-01-07T03:22:32.675Z,4.70
2024-01-07T03:25:00.806Z,4.17
2024-01-07T03:27:28.925Z,3.60
2024-01-07T03:29:56.945Z,4.77
2024-01-07T03:32:24.964Z,5.47
2024-01-07T03:34:53.117Z,3.60
2024-01-07T03:37:21.258Z,4.57
2024-01-07T03:39:49.653Z,3.17
2024-01-07T03:42:17.715Z,4.77
2024-01-07T03:44:45.802Z,4.80
2024-01-07T03:47:13.831Z,3.70
2024-01-07T03:49:42.199Z,3.33
2024-01-07T03:52:10.553Z,3.53
2024-01-07T03:54:38.607Z,3.40
2024-01-07T03:57:06.891Z,3.60
2024-01-07T03:59:34.933Z,4.07
2024-01-07T04:02:02.971Z,3.03
2024-01-07T04:04:31.047Z,3.30
2024-01-07T04:06:59.112Z,4.27
2024-01-07T04:09:27.275Z,3.30
2024-01-07T04:11:55.368Z,4.53
2024-01-07T04:14:23.376Z,3.67
2024-01-07T04:16:51.457Z,3.20
2024-01-07T04:19:19.571Z,2.50
2024-01-07T04:21:50.538Z,2.67
2024-01-07T04:24:18.738Z,2.80
2024-01-07T04:26:46.712Z,2.60
2024-01-07T04:29:14.755Z,2.83
2024-01-07T04:31:42.879Z,3.40
2024-01-07T04:34:11.158Z,2.50
2024-01-07T04:36:39.261Z,2.87
2024-01-07T04:39:07.370Z,3.03
2024-01-07T04:41:35.453Z,3.87
2024-01-07T04:44:03.545Z,3.43
2024-01-07T04:46:31.617Z,3.13
2024-01-07T04:48:59.672Z,2.50
2024-01-07T04:51:27.719Z,2.80
2024-01-07T04:53:55.747Z,3.20
2024-01-07T04:56:23.783Z,4.50
2024-01-07T04:58:51.749Z,3.37
2024-01-07T05:01:19.808Z,3.77
2024-01-07T05:03:47.943Z,3.90
2024-01-07T05:06:18.374Z,2.93
2024-01-07T05:08:46.446Z,2.53
2024-01-07T05:11:14.514Z,3.60
2024-01-07T05:13:42.581Z,3.07
2024-01-07T05:16:10.668Z,3.53
2024-01-07T05:18:38.976Z,3.37
2024-01-07T05:21:08.421Z,4.33
2024-01-07T05:23:36.765Z,2.77
2024-01-07T05:26:04.973Z,3.00
2024-01-07T05:28:32.962Z,3.17
2024-01-07T05:31:04.219Z,3.13
2024-01-07T05:33:32.389Z,3.77
2024-01-07T05:36:00.537Z,3.10
2024-01-07T05:38:31.316Z,3.10
2024-01-07T05:41:00.825Z,2.77
2024-01-07T05:43:28.983Z,2.83
2024-01-07T05:45:57.095Z,2.83
2024-01-07T05:48:25.517Z,3.67
2024-01-07T05:50:53.746Z,2.70
2024-01-07T05:53:21.802Z,3.10
2024-01-07T05:55:50.070Z,3.47
2024-01-07T05:58:18.144Z,3.07
2024-01-07T06:00:46.198Z,2.93
2024-01-07T06:03:14.313Z,2.80
2024-01-07T06:05:45.433Z,3.47
2024-01-07T06:08:13.541Z,2.87
2024-01-07T06:10:42.445Z,3.00
2024-01-07T06:13:10.609Z,3.77
2024-01-07T06:15:38.746Z,3.47
2024-01-07T06:18:09.598Z,3.93
2024-01-07T06:20:37.642Z,3.53
2024-01-07T06:23:05.846Z,3.00
2024-01-07T06:25:33.875Z,3.90
2024-01-07T06:28:01.994Z,3.40
2024-01-07T06:30:30.206Z,3.57
2024-01-07T06:32:58.404Z,3.27
2024-01-07T06:35:26.473Z,3.90
2024-01-07T06:37:54.449Z,4.30
2024-01-07T06:40:22.668Z,3.20
2024-01-07T06:42:53.871Z,3.83
2024-01-07T06:45:22.094Z,3.57
2024-01-07T06:47:50.164Z,3.00
2024-01-07T06:50:19.070Z,4.03
2024-01-07T06:52:47.166Z,3.87
2024-01-07T06:55:15.260Z,4.03
2024-01-07T06:57:43.335Z,3.03
2024-01-07T07:00:11.709Z,3.20
2024-01-07T07:02:39.778Z,3.10
2024-01-07T07:05:08.090Z,3.47
2024-01-07T07:07:36.206Z,3.13
2024-01-07T07:10:04.965Z,3.57
2024-01-07T07:12:33.087Z,3.87
2024-01-07T07:15:01.138Z,2.97
2024-01-07T07:17:29.112Z,3.73
2024-01-07T07:19:57.522Z,3.83
2024-01-07T07:22:25.681Z,4.10
2024-01-07T07:24:54.686Z,4.67
2024-01-07T07:27:23.571Z,4.30
2024-01-07T07:29:51.902Z,3.80
2024-01-07T07:32:20.577Z,4.07
2024-01-07T07:34:49.661Z,3.00
2024-01-07T07:37:20.470Z,4.13
2024-01-07T07:39:49.270Z,2.93
2024-01-07T07:42:18.400Z,2.97
2024-01-07T07:44:46.456Z,2.53
2024-01-07T07:47:14.590Z,2.90
2024-01-07T07:49:42.964Z,3.30
2024-01-07T07:52:16.745Z,3.30
2024-01-07T07:54:44.917Z,3.33
2024-01-07T07:57:12.950Z,3.00
2024-01-07T07:59:40.962Z,3.50
2024-01-07T08:02:09.051Z,3.73
2024-01-07T08:04:39.733Z,3.53
2024-01-07T08:07:07.862Z,4.10
2024-01-07T08:09:36.019Z,4.50
2024-01-07T08:12:05.412Z,3.77
2024-01-07T08:14:34.078Z,3.73
2024-01-07T08:17:02.175Z,3.10
2024-01-07T08:19:30.252Z,3.67
2024-01-07T08:21:59.004Z,4.10
2024-01-07T08:24:27.127Z,3.47
2024-01-07T08:26:55.235Z,3.37
2024-01-07T08:29:23.215Z,3.70
2024-01-07T08:31:51.375Z,3.70
2024-01-07T08:34:22.095Z,3.70
2024-01-07T08:36:50.308Z,4.47
2024-01-07T08:39:18.428Z,4.63
2024-01-07T08:41:46.578Z,4.53
2024-01-07T08:44:14.617Z,3.57
2024-01-07T08:46:42.757Z,3.80
2024-01-07T08:49:11.037Z,3.67
2024-01-07T08:51:40.129Z,5.00
2024-01-07T08:54:08.261Z,4.17
2024-01-07T08:56:36.345Z,4.57
2024-01-07T08:59:04.686Z,3.43
2024-01-07T09:01:32.836Z,5.20
2024-01-07T09:04:01.031Z,4.23
2024-01-07T09:06:29.348Z,3.33
2024-01-07T09:08:57.509Z,3.73
2024-01-07T09:11:26.336Z,3.83
2024-01-07T09:13:54.558Z,3.27
2024-01-07T09:16:22.646Z,2.83
2024-01-07T09:18:50.801Z,3.17
2024-01-07T09:21:18.911Z,2.73
2024-01-07T09:23:47.352Z,3.70
2024-01-07T09:26:15.334Z,3.33
2024-01-07T09:28:45.209Z,3.67
2024-01-07T09:31:13.289Z,3.53
2024-01-07T09:33:41.575Z,3.67
2024-01-07T09:36:15.990Z,3.53
2024-01-07T09:38:56.412Z,3.60
2024-01-07T09:41:24.487Z,3.40
2024-01-07T09:43:54.336Z,3.93
2024-01-07T09:46:22.517Z,3.00
2024-01-07T09:48:50.709Z,2.73
2024-01-07T09:51:18.807Z,4.13
2024-01-07T09:53:47.492Z,3.70
2024-01-07T09:56:28.372Z,3.43
2024-01-07T09:58:56.533Z,3.27
2024-01-07T10:01:24.798Z,2.67
2024-01-07T10:03:52.971Z,2.03
2024-01-07T10:06:21.984Z,2.83
2024-01-07T10:08:50.038Z,2.50
2024-01-07T10:11:18.309Z,3.23
2024-01-07T10:13:54.434Z,2.73
2024-01-07T10:16:22.579Z,3.07
2024-01-07T10:18:50.725Z,2.90
2024-01-07T10:21:18.784Z,3.67
2024-01-07T10:23:46.888Z,3.53
2024-01-07T10:26:23.471Z,2.73
2024-01-07T10:28:55.804Z,3.17
2024-01-07T10:31:23.988Z,2.30
2024-01-07T10:33:52.220Z,3.27
2024-01-07T10:36:20.390Z,3.80
2024-01-07T10:38:48.554Z,4.13
2024-01-07T10:41:17.961Z,2.50
2024-01-07T10:43:46.056Z,3.10
2024-01-07T10:46:14.201Z,3.73
2024-01-07T10:48:50.435Z,2.93
2024-01-07T10:51:18.486Z,4.00
2024-01-07T10:53:46.817Z,3.33
2024-01-07T10:56:14.818Z,2.60
2024-01-07T10:58:42.928Z,3.00
2024-01-07T11:01:11.433Z,2.73
2024-01-07T11:04:06.599Z,3.27
2024-01-07T11:06:57.007Z,3.00
2024-01-07T11:09:53.830Z,4.30
2024-01-07T11:12:21.924Z,2.37
2024-01-07T11:14:54.195Z,3.00
2024-01-07T11:17:34.451Z,3.80
2024-01-07T11:20:02.591Z,3.40
2024-01-07T11:22:30.833Z,3.37
2024-01-07T11:25:03.210Z,3.00
2024-01-07T11:27:33.799Z,6.50
2024-01-07T11:30:09.225Z,3.83
2024-01-07T11:32:37.539Z,3.83
2024-01-07T11:35:06.973Z,3.70
2024-01-07T11:37:35.109Z,3.90
2024-01-07T11:40:06.582Z,2.90
2024-01-07T11:42:35.097Z,2.90
2024-01-07T11:45:03.181Z,3.50
2024-01-07T11:47:31.325Z,4.30
2024-01-07T11:49:59.514Z,3.37
2024-01-07T11:52:27.696Z,3.37
2024-01-07T11:54:55.798Z,3.93
2024-01-07T11:57:24.012Z,2.87
2024-01-07T11:59:52.064Z,3.73
2024-01-07T12:02:21.867Z,3.20
2024-01-07T12:04:49.945Z,2.70
2024-01-07T12:07:19.157Z,4.87
2024-01-07T12:09:47.238Z,3.77
2024-01-07T12:12:15.347Z,3.70
2024-01-07T12:14:43.404Z,3.30
2024-01-07T12:17:14.105Z,4.13
2024-01-07T12:19:43.195Z,4.57
2024-01-07T12:22:12.537Z,2.93
2024-01-07T12:24:40.587Z,3.20
2024-01-07T12:27:09.338Z,3.50
2024-01-07T12:29:37.348Z,3.07
2024-01-07T12:32:05.636Z,3.60
2024-01-07T12:34:34.341Z,4.17
2024-01-07T12:37:04.514Z,3.10
2024-01-07T12:39:32.711Z,4.03
2024-01-07T12:42:00.970Z,2.83
2024-01-07T12:44:31.688Z,3.47
2024-01-07T12:46:59.665Z,4.07
2024-01-07T12:49:27.873Z,2.97
2024-01-07T12:51:59.094Z,3.20
2024-01-07T12:54:27.137Z,3.33
2024-01-07T12:56:55.335Z,3.73
2024-01-07T12:59:23.384Z,2.90
2024-01-07T13:01:53.525Z,3.20
2024-01-07T13:04:22.060Z,3.30
2024-01-07T13:06:50.606Z,4.30
2024-01-07T13:09:18.850Z,3.57
2024-01-07T13:11:46.995Z,3.27
2024-01-07T13:14:15.059Z,3.30
2024-01-07T13:16:43.152Z,5.43
2024-01-07T13:19:13.246Z,4.10
2024-01-07T13:21:43.014Z,2.93
2024-01-07T13:24:11.325Z,3.40
2024-01-07T13:26:39.896Z,4.63
2024-01-07T13:29:07.977Z,3.77
2024-01-07T13:31:36.169Z,4.33
2024-01-07T13:34:04.631Z,3.10
2024-01-07T13:36:32.870Z,2.70
2024-01-07T13:39:00.941Z,3.07
2024-01-07T13:41:31.494Z,2.97
2024-01-07T13:44:00.054Z,4.37
2024-01-07T13:46:30.194Z,3.13
2024-01-07T13:48:59.367Z,4.33
2024-01-07T13:51:27.694Z,3.77
2024-01-07T13:53:55.794Z,6.67
2024-01-07T13:56:24.002Z,3.53
2024-01-07T13:58:52.647Z,3.00
2024-01-07T14:01:20.767Z,3.77
2024-01-07T14:03:49.071Z,4.00
2024-01-07T14:06:17.610Z,3.80
2024-01-07T14:08:45.764Z,3.07
2024-01-07T14:11:13.822Z,3.13
2024-01-07T14:13:41.929Z,3.67
2024-01-07T14:16:10.123Z,3.83
2024-01-07T14:18:38.152Z,4.23
2024-01-07T14:21:06.324Z,7.43
2024-01-07T14:23:36.179Z,2.83
2024-01-07T14:26:04.670Z,3.30
2024-01-07T14:28:32.819Z,3.23
2024-01-07T14:31:02.765Z,3.20
2024-01-07T14:33:31.023Z,3.47
2024-01-07T14:35:59.164Z,2.83
2024-01-07T14:38:28.071Z,3.10
2024-01-07T14:40:56.085Z,4.17
2024-01-07T14:43:24.226Z,3.10
2024-01-07T14:45:52.386Z,3.50
2024-01-07T14:48:20.478Z,3.07
2024-01-07T14:50:50.238Z,3.70
2024-01-07T14:53:18.341Z,4.17
2024-01-07T14:55:46.392Z,2.80
2024-01-07T14:58:14.539Z,3.07
2024-01-07T15:00:42.961Z,2.90
2024-01-07T15:03:11.118Z,2.73
2024-01-07T15:05:39.341Z,3.10
2024-01-07T15:08:07.389Z,3.43
2024-01-07T15:10:35.937Z,2.93
2024-01-07T15:13:11.387Z,2.10
2024-01-07T15:15:45.232Z,2.90
2024-01-07T15:18:14.584Z,2.90
2024-01-07T15:20:42.606Z,2.57
2024-01-07T15:23:10.604Z,2.87
2024-01-07T15:25:38.783Z,2.93
2024-01-07T15:28:07.197Z,2.90
2024-01-07T15:30:38.312Z,2.63
2024-01-07T15:33:06.542Z,2.90
2024-01-07T15:35:34.714Z,2.57
2024-01-07T15:38:02.761Z,2.97
2024-01-07T15:40:32.953Z,2.53
2024-01-07T15:43:01.951Z,2.87
2024-01-07T15:45:30.018Z,3.03
2024-01-07T15:47:58.596Z,3.00
2024-01-07T15:50:26.665Z,3.20
2024-01-07T15:52:54.681Z,2.77
2024-01-07T15:55:22.871Z,3.63
2024-01-07T15:57:50.950Z,2.27
2024-01-07T16:00:19.312Z,2.87
2024-01-07T16:02:48.959Z,2.67
2024-01-07T16:05:17.353Z,2.27
2024-01-07T16:07:45.409Z,4.27
2024-01-07T16:10:14.206Z,4.23
2024-01-07T16:12:42.676Z,3.07
2024-01-07T16:15:14.203Z,2.80
2024-01-07T16:17:45.237Z,3.40
2024-01-07T16:20:14.301Z,3.60
2024-01-07T16:22:44.750Z,3.50
2024-01-07T16:25:15.820Z,4.17
2024-01-07T16:27:43.965Z,4.07
2024-01-07T16:30:12.709Z,3.63
2024-01-07T16:32:40.822Z,5.10
2024-01-07T16:35:12.122Z,5.10
2024-01-07T16:37:42.986Z,4.23
2024-01-07T16:40:14.411Z,4.80
2024-01-07T16:42:43.109Z,3.93
2024-01-07T16:45:11.378Z,3.42
2024-01-07T16:47:39.495Z,4.63
2024-01-07T16:50:21.003Z,4.47
2024-01-07T16:52:52.535Z,4.53
2024-01-07T16:55:20.589Z,5.73
2024-01-07T16:57:48.664Z,6.07
2024-01-07T17:00:17.860Z,6.33
2024-01-07T17:02:47.039Z,4.00
2024-01-07T17:05:15.626Z,3.63
2024-01-07T17:07:43.852Z,3.73
2024-01-07T17:10:12.470Z,3.70
2024-01-07T17:12:40.454Z,4.83
2024-01-07T17:15:08.673Z,3.80
2024-01-07T17:17:37.796Z,3.97
2024-01-07T17:20:06.234Z,5.17
2024-01-07T17:22:34.319Z,5.97
2024-01-07T17:25:02.361Z,3.57
2024-01-07T17:27:30.570Z,4.17
2024-01-07T17:29:58.603Z,4.93
2024-01-07T17:32:27.325Z,4.47
2024-01-07T17:34:58.131Z,3.50
2024-01-07T17:37:28.516Z,5.30
2024-01-07T17:39:57.140Z,5.30
2024-01-07T17:42:26.373Z,6.07
2024-01-07T17:44:54.517Z,4.83
2024-01-07T17:47:22.824Z,6.90
2024-01-07T17:49:50.912Z,5.47
2024-01-07T17:52:19.043Z,4.43
2024-01-07T17:54:47.113Z,5.33
2024-01-07T17:57:17.957Z,5.47
2024-01-07T17:59:45.974Z,6.57
2024-01-07T18:02:15.179Z,7.90
2024-01-07T18:04:43.544Z,6.83
2024-01-07T18:07:17.034Z,5.33
2024-01-07T18:09:45.294Z,6.27
2024-01-07T18:12:17.791Z,5.70
2024-01-07T18:14:46.801Z,5.57
2024-01-07T18:17:14.953Z,5.50
2024-01-07T18:19:43.249Z,5.90
2024-01-07T18:22:11.365Z,7.17
2024-01-07T18:24:41.114Z,8.00
2024-01-07T18:27:09.176Z,5.60
2024-01-07T18:29:37.254Z,6.10
2024-01-07T18:32:09.797Z,6.00
2024-01-07T18:34:41.144Z,6.43
2024-01-07T18:37:09.268Z,6.70
2024-01-07T18:39:38.826Z,4.23
2024-01-07T18:42:07.212Z,5.50
2024-01-07T18:44:35.283Z,7.87
2024-01-07T18:47:03.391Z,10.27
2024-01-07T18:49:34.461Z,8.50
2024-01-07T18:52:02.556Z,7.40
2024-01-07T18:54:30.701Z,6.23
2024-01-07T18:56:58.751Z,5.53
2024-01-07T18:59:26.848Z,8.03
2024-01-07T19:01:55.085Z,7.50
2024-01-07T19:04:23.227Z,6.77
2024-01-07T19:06:51.569Z,6.73
2024-01-07T19:09:19.790Z,8.03
2024-01-07T19:11:50.984Z,6.00
2024-01-07T19:14:19.392Z,6.57
2024-01-07T19:16:48.271Z,7.13
2024-01-07T19:19:17.169Z,7.37
2024-01-07T19:21:47.606Z,5.93
2024-01-07T19:24:15.727Z,6.67
2024-01-07T19:26:45.646Z,7.10
2024-01-07T19:29:13.903Z,6.57
2024-01-07T19:31:44.557Z,7.40
2024-01-07T19:34:12.678Z,8.33
2024-01-07T19:36:43.526Z,5.70
2024-01-07T19:39:13.411Z,7.17
2024-01-07T19:41:41.821Z,6.53
2024-01-07T19:44:09.913Z,6.33
2024-01-07T19:46:38.178Z,7.37
2024-01-07T19:49:08.413Z,10.53
2024-01-07T19:51:36.629Z,7.93
2024-01-07T19:54:04.691Z,6.43
2024-01-07T19:56:32.925Z,7.37
2024-01-07T19:59:01.149Z,5.03
2024-01-07T20:01:29.265Z,7.00
2024-01-07T20:03:57.468Z,6.70
2024-01-07T20:06:26.551Z,6.60
2024-01-07T20:08:55.213Z,6.17
2024-01-07T20:11:26.130Z,5.40
2024-01-07T20:13:54.333Z,6.50
2024-01-07T20:16:22.772Z,5.33
2024-01-07T20:18:53.387Z,5.30
2024-01-07T20:21:25.787Z,7.30
2024-01-07T20:24:01.947Z,7.10
2024-01-07T20:26:33.109Z,6.00
2024-01-07T20:29:03.532Z,7.67
2024-01-07T20:31:31.634Z,5.10
2024-01-07T20:34:00.253Z,7.40
2024-01-07T20:36:28.554Z,6.07
2024-01-07T20:38:56.732Z,7.90
2024-01-07T20:41:25.086Z,7.63
2024-01-07T20:43:53.953Z,7.10
2024-01-07T20:46:22.657Z,6.17
2024-01-07T20:48:51.105Z,7.50
2024-01-07T20:51:19.385Z,6.27
2024-01-07T20:53:47.559Z,6.80
2024-01-07T20:56:15.688Z,6.90
2024-01-07T20:58:43.769Z,7.03
2024-01-07T21:01:11.871Z,5.47
2024-01-07T21:03:40.020Z,4.80
2024-01-07T21:06:08.394Z,6.83
2024-01-07T21:08:37.657Z,7.10
2024-01-07T21:11:07.254Z,5.17
2024-01-07T21:13:35.997Z,6.00
2024-01-07T21:16:05.226Z,5.40
2024-01-07T21:18:33.555Z,6.03
2024-01-07T21:21:03.446Z,5.03
2024-01-07T21:23:31.573Z,4.97
2024-01-07T21:26:00.328Z,7.13
2024-01-07T21:28:29.055Z,5.37
2024-01-07T21:30:57.223Z,6.77
2024-01-07T21:33:25.777Z,6.67
2024-01-07T21:35:53.975Z,4.83
2024-01-07T21:38:22.221Z,4.97
2024-01-07T21:40:56.127Z,6.13
2024-01-07T21:43:25.130Z,5.33
2024-01-07T21:45:53.552Z,5.57
2024-01-07T21:48:21.659Z,6.93
2024-01-07T21:50:49.805Z,6.00
2024-01-07T21:53:18.473Z,23.40
2024-01-07T21:55:46.561Z,5.97
2024-01-07T21:58:14.826Z,6.97
2024-01-07T22:00:45.283Z,7.40
2024-01-07T22:03:13.661Z,5.17
2024-01-07T22:05:41.918Z,6.03
2024-01-07T22:08:10.223Z,5.07
2024-01-07T22:10:38.315Z,8.67
2024-01-07T22:13:06.389Z,7.50
2024-01-07T22:15:34.871Z,7.73
2024-01-07T22:18:03.184Z,5.87
2024-01-07T22:20:31.313Z,6.37
2024-01-07T22:22:59.548Z,5.30
2024-01-07T22:25:27.626Z,6.73
2024-01-07T22:27:55.719Z,7.00
2024-01-07T22:30:23.784Z,6.30
2024-01-07T22:32:52.059Z,5.57
2024-01-07T22:35:20.590Z,6.37
2024-01-07T22:37:51.840Z,7.47
2024-01-07T22:40:19.918Z,5.53
2024-01-07T22:42:47.945Z,6.77
2024-01-07T22:45:16.177Z,5.43
2024-01-07T22:47:44.377Z,5.93
2024-01-07T22:50:12.768Z,6.87
2024-01-07T22:52:41.458Z,7.10
2024-01-07T22:55:09.937Z,7.90
2024-01-07T22:57:38.261Z,6.27
2024-01-07T23:00:08.102Z,7.17
2024-01-07T23:02:36.147Z,7.73
2024-01-07T23:05:04.355Z,5.50
2024-01-07T23:09:58.447Z,5.53
2024-01-07T23:12:27.702Z,5.23
2024-01-07T23:14:55.858Z,5.97
2024-01-07T23:17:26.569Z,8.37
2024-01-07T23:19:55.138Z,5.37
2024-01-07T23:22:23.755Z,5.03
2024-01-07T23:24:52.024Z,5.83
2024-01-07T23:27:20.067Z,5.07
2024-01-07T23:29:48.189Z,6.47
2024-01-07T23:32:16.312Z,5.80
2024-01-07T23:34:44.555Z,5.20
2024-01-07T23:37:12.573Z,5.10
2024-01-07T23:39:40.783Z,4.33
2024-01-07T23:42:08.818Z,5.10
2024-01-07T23:44:36.918Z,4.23
2024-01-07T23:47:05.081Z,5.13
2024-01-07T23:49:33.286Z,5.80
2024-01-07T23:52:01.479Z,4.50
2024-01-07T23:54:30.288Z,5.73
2024-01-07T23:56:58.393Z,6.33
2024-01-07T23:59:27.053Z,3.87
